Miramar Marine Corps Air Station
KNKX : now visible

Airfield :











YOU CAN JOIN US ON...

 
LOGIN :

Register | Disclaimer

   EN    FR    IT 

 









Legend :    VFR   Marginal VFR   IFR   Intensive IFR   Very Intensive IFR
Visi :
Ceiling :
>= 8 km
>= 3000ft
5 to 8 km
1000 to 3000 ft
1500m to 5 km
500 to 1000 ft
800 to 1500m
200 to 500 ft
< 800m
< 200 ft
Symbols :   Thunderstorms  Fog  Heavy snow  Heavy precipitations  Wind > 20 kt






- Airport Elevation : 477 ft


KNKX - Miramar Marine Corps Air Station

CURRENT METAR :
  • 171655Z 15003KT 10SM CLR 26/04 A2997 RMK AO2 SLP143 T02560044 $

EXPIRED METARs :
  • 171555Z 00000KT 10SM CLR 22/04 A2997 RMK AO2 SLP143 T02170039 $
  • 171455Z AUTO 02003KT 10SM CLR 13/03 A2997 RMK AO2 SLP143 T01330028 53007 $

TAF TAF KNKX
Valid from the 17 at 15:00 until the 18 at 15:00 UTC


1715/1815 VRB05KT 9999 SKC QNH2994INS T33/1721Z T13/1815Z



MET'MAP, your aeronautical weather chart ! - Copyright ORBIFLY December 2007 - Disclaimer

ORBIFLY MET'MAP TEAM :

Programming & Development : Alexandra Zaïnal
Concept & Development : Baudouin d'Aumeries
Co-Development & Prog : Marc-Olivier Méhu
Technical & hardware support : Manuel Goepfert

Contact : metmap@orbifly.com




SOURCES & CREDITS :

   NOAA       Earth
Advisory